Azalea, OR

1:14 AM PST on December 21, 2014 (GMT -0800)
wolf creek | Change Station
CLOSE
Current Station
Personal Weather Station
Location: Wolf Creek, OR
Elevation: 1503 ft
Nearby Weather Stations

Elev 1503 ft 42.71 °N, 123.37 °W | Updated 2 seconds ago

Rain
Rain
55.0 °F
Feels Like 55.0 °F
N
0.0
Wind Variable Wind from East
Gusts 3.6 mph

Today
High -- | Low -- °F
--% Chance of Precip.
Yesterday
High -- | Low -- °F
Precip. -- in
7:40 AM 4:41 PM
Waning Crescent, 1% visible
Pressure 29.97 in
Visibility 5.0 miles
Clouds Mostly Cloudy 5000 ft
Overcast 7500 ft
Dew Point 52 °F
Humidity 89%
Rainfall 0.03 in
Snow Depth Not available.
UV 0 out of 12
Pollen .60 out of 12
Air Quality Not available.
Flu Activity Not available.
METAR KRBG 210853Z AUTO 16005KT 5SM -RA BR BKN050 OVC075 14/12 A2997 RMK AO2 SLP148 P0002 60011 T01390122 51010 $

More Conditions Fewer Conditions

Pressure 29.97 in
Visibility 5.0 miles
Clouds Mostly Cloudy 5000 ft
Overcast 7500 ft
Dew Point 52 °F
Humidity 89%
Rainfall 0.03 in
Snow Depth Not available.
UV 0 out of 12
Pollen .60 out of 12
Air Quality Not available.
Flu Activity Not available.
METAR KRBG 210853Z AUTO 16005KT 5SM -RA BR BKN050 OVC075 14/12 A2997 RMK AO2 SLP148 P0002 60011 T01390122 51010 $

More Conditions Fewer Conditions

10-Day Weather Forecast

Almanac

Astronomy

Dec. 21, 2014 Rise Set
Actual Time
Civil Twilight
Nautical Twilight
Astronomical Twilight
Moon
Length of Visible Light
Length of Day
Tomorrow will be .
, % of the Moon is Illuminated

Today's Extremes

State Highs State Lows

Community

WunderPhotos

Upload Photos

1,779,364 photos uploaded!

WunderBlogs® & News

Nearby

Air Quality

  Air Quality AQ Index Pollutant
Not available.

Snow Depth

Station Depth Elevation

Earthquake Activity

City Distance Mag. Time & Date
Minimum magnitude displayed is 2.5.

Coastal Water Temperatures

Place Temperature

Nearby Weather Stations